Yuukimaru No.8 — JD2477 — position and weather

sailwx.info

Track history (hours):
 
Tides and Currents Weather Stations Pressure Air Temp Water Temp Dewpoint Dewpoint Depression Visibility Wind Speed Wind Dir Waves Ship Positions

Yuukimaru No.8

Last reported at 2018-Feb-18 03:36 UTC. Time now 2018-Feb-18 18:36 UTC.
Position N 34°58' E 140°07'.

Length 75 m; draft 4.7 m.

Type: Ship (hazmat cat D). MMSI: 431000298.

Date/timePositionNaut miles runAvg speedWind from/ knotsBaromVisibWave heightAir tempDewpointWater temp
2018-Feb-18 03:36N 34°58' E 140°07'20 7.2
2018-Feb-18 00:51N 35°06' E 139°45'411.5
2018-Feb-18 00:30N 35°10' E 139°46'611.9
2018-Feb-17 23:59N 35°16' E 139°46'612.1
2018-Feb-17 23:31N 35°21' E 139°42'611.5
2018-Feb-17 23:01N 35°26' E 139°45'611.8
2018-Feb-17 22:30N 35°31' E 139°50'610.1
2018-Feb-17 21:58N 35°37' E 139°49'1 0.0
2018-Feb-16 23:04N 35°37' E 139°48'0 5.3
2018-Feb-16 22:59N 35°37' E 139°49'8 5.6
2018-Feb-16 21:29N 35°29' E 139°52'4 9.5
2018-Feb-16 21:01N 35°26' E 139°49'5 9.3
2018-Feb-16 20:30N 35°22' E 139°45'5 9.2
2018-Feb-16 20:00N 35°18' E 139°45'510.2
2018-Feb-16 19:31N 35°13' E 139°47'510.2
2018-Feb-16 19:00N 35°08' E 139°45'6 9.7
2018-Feb-16 18:24N 35°03' E 139°40'410.7
2018-Feb-16 18:00N 35°01' E 139°36'2610.8
2018-Feb-16 15:34N 34°48' E 139°08'210.7
2018-Feb-16 15:26N 34°47' E 139°07'510.5
2018-Feb-16 14:58N 34°43' E 139°04'711.3
2018-Feb-16 14:22N 34°38' E 138°59'1511.0
2018-Feb-16 12:58N 34°34' E 138°41'711.1
2018-Feb-16 12:21N 34°33' E 138°33'910.5
2018-Feb-16 11:30N 34°33' E 138°22'611.3
2018-Feb-16 10:57N 34°32' E 138°14'611.2
2018-Feb-16 10:23N 34°32' E 138°07'810.3
2018-Feb-16 09:39N 34°31' E 137°57'158 7.9
2018-Feb-15 13:41N 34°04' E 134°49'410.8
2018-Feb-15 13:19N 34°07' E 134°46'1310.5
2018-Feb-15 12:06N 34°17' E 134°37'2 9.7
2018-Feb-15 11:56N 34°19' E 134°37'410.4
2018-Feb-15 11:30N 34°23' E 134°37'510.5
2018-Feb-15 11:00N 34°28' E 134°37'510.3
2018-Feb-15 10:30N 34°34' E 134°37'610.2
2018-Feb-15 09:53N 34°40' E 134°37'7 6.9
2018-Feb-15 08:51N 34°47' E 134°38'0 0.0
2018-Feb-15 08:30N 34°47' E 134°38'0 0.0
2018-Feb-15 03:59N 34°47' E 134°38'0 0.1
2018-Feb-15 03:17N 34°47' E 134°38'0 0.1
2018-Feb-15 02:54N 34°47' E 134°38'0 0.1
2018-Feb-15 02:30N 34°47' E 134°38'0 0.0
2018-Feb-15 01:00N 34°47' E 134°38'0 0.0
2018-Feb-15 00:30N 34°47' E 134°38'0 0.0
2018-Feb-15 00:00N 34°47' E 134°38'0 0.1
2018-Feb-14 23:29N 34°47' E 134°38'0 0.1
2018-Feb-14 22:53N 34°47' E 134°38'0 0.0
2018-Feb-14 07:19N 34°47' E 134°38'0 0.0
2018-Feb-14 07:00N 34°47' E 134°38'0 0.0
2018-Feb-14 06:30N 34°47' E 134°38'0 0.0
2018-Feb-14 06:00N 34°47' E 134°38'2 0.8
2018-Feb-14 03:47N 34°45' E 134°38'0 0.0
2018-Feb-14 03:30N 34°45' E 134°38'0 0.0
2018-Feb-14 03:00N 34°45' E 134°38'0 0.0
2018-Feb-14 02:30N 34°45' E 134°38'0 0.0
2018-Feb-14 02:00N 34°45' E 134°38'0 0.0
2018-Feb-14 01:30N 34°45' E 134°38'0 0.0
2018-Feb-14 00:59N 34°45' E 134°38'0 0.0
2018-Feb-14 00:29N 34°45' E 134°38'0 0.0
2018-Feb-14 00:00N 34°45' E 134°38'0 0.0
2018-Feb-13 23:30N 34°45' E 134°38'0 0.0
2018-Feb-13 23:00N 34°45' E 134°38'0 0.0
2018-Feb-13 22:30N 34°45' E 134°38'0 0.0
2018-Feb-13 22:00N 34°45' E 134°38'0 0.0
2018-Feb-13 21:30N 34°45' E 134°38'0 0.0
2018-Feb-13 21:00N 34°45' E 134°38'0 0.0
2018-Feb-13 20:27N 34°45' E 134°38'0 0.0
2018-Feb-13 20:00N 34°45' E 134°38'0 0.0
2018-Feb-13 19:30N 34°45' E 134°38'0 0.1
2018-Feb-13 18:43N 34°45' E 134°38'0 0.0
2018-Feb-13 17:23N 34°45' E 134°38'0 0.0
2018-Feb-13 16:30N 34°45' E 134°38'0 0.0
2018-Feb-13 12:11N 34°45' E 134°38'0 0.0
2018-Feb-13 11:52N 34°45' E 134°38'0 0.0
2018-Feb-13 11:28N 34°45' E 134°38'0 0.0
2018-Feb-13 10:45N 34°45' E 134°38'0 0.1
2018-Feb-13 10:30N 34°45' E 134°38'4 6.7
2018-Feb-13 09:51N 34°43' E 134°42'411.2
2018-Feb-13 09:30N 34°41' E 134°47'611.2
2018-Feb-13 09:01N 34°38' E 134°53'611.1
2018-Feb-13 08:30N 34°38' E 134°59'510.6
2018-Feb-13 08:01N 34°36' E 135°05'510.5
2018-Feb-13 07:30N 34°36' E 135°12'510.2
2018-Feb-13 07:00N 34°37' E 135°18'510.2
2018-Feb-13 06:30N 34°36' E 135°24'2 4.8
2018-Feb-13 06:00N 34°35' E 135°27'0 0.1
2018-Feb-13 05:30N 34°35' E 135°27'0 0.6
2018-Feb-13 05:01N 34°35' E 135°27'0 0.0
2018-Feb-13 04:30N 34°35' E 135°27'0 0.0
2018-Feb-13 04:00N 34°35' E 135°27'0 0.0
2018-Feb-13 03:31N 34°35' E 135°27'0 0.0
2018-Feb-13 03:01N 34°35' E 135°27'0 0.0
2018-Feb-13 02:30N 34°35' E 135°27'0 0.0
2018-Feb-13 02:01N 34°35' E 135°27'0 0.0
2018-Feb-13 01:30N 34°35' E 135°27'0 0.0
2018-Feb-13 01:00N 34°35' E 135°27'0 0.0
2018-Feb-13 00:31N 34°35' E 135°27'0 0.0
2018-Feb-13 00:00N 34°35' E 135°27'0 0.0
2018-Feb-12 23:31N 34°35' E 135°27'0 0.0
2018-Feb-12 23:00N 34°35' E 135°27'0 0.8
2018-Feb-12 22:30N 34°35' E 135°27'0 0.1
2018-Feb-12 22:00N 34°35' E 135°27'0 0.0
2018-Feb-12 21:31N 34°35' E 135°27'0 0.0
2018-Feb-12 20:59N 34°35' E 135°27'0 0.0
2018-Feb-12 20:31N 34°35' E 135°27'0 0.0
2018-Feb-12 20:01N 34°35' E 135°27'0 0.0
2018-Feb-12 19:30N 34°35' E 135°27'0 0.0
2018-Feb-12 19:00N 34°35' E 135°27'0 0.0
2018-Feb-12 18:31N 34°35' E 135°27'0 0.0
2018-Feb-12 18:00N 34°35' E 135°27'0 0.0
2018-Feb-12 17:30N 34°35' E 135°27'0 0.0
2018-Feb-12 17:00N 34°35' E 135°27'0 0.0
2018-Feb-12 16:30N 34°35' E 135°27'0 0.0
2018-Feb-12 16:00N 34°35' E 135°27'0 0.0
2018-Feb-12 15:31N 34°35' E 135°27'0 0.0
2018-Feb-12 15:00N 34°35' E 135°27'0 0.1
2018-Feb-12 14:30N 34°35' E 135°27'2 3.3
2018-Feb-12 14:00N 34°36' E 135°25'5 9.8
2018-Feb-12 13:31N 34°36' E 135°19'510.3
2018-Feb-12 13:00N 34°35' E 135°13'510.5
2018-Feb-12 12:30N 34°35' E 135°07'611.1
2018-Feb-12 12:01N 34°37' E 135°01'510.3
2018-Feb-12 11:30N 34°35' E 134°55'5 9.9
2018-Feb-12 11:00N 34°33' E 134°49'510.0
2018-Feb-12 10:30N 34°31' E 134°43'510.2
2018-Feb-12 10:00N 34°29' E 134°38'510.2
2018-Feb-12 09:30N 34°28' E 134°32'510.1
2018-Feb-12 09:00N 34°26' E 134°26'510.1
2018-Feb-12 08:28N 34°24' E 134°20'81 9.5
2018-Feb-11 23:56N 34°01' E 132°46'511.0
2018-Feb-11 23:31N 33°57' E 132°43'811.4
2018-Feb-11 22:48N 33°52' E 132°35'311.1
2018-Feb-11 22:30N 33°49' E 132°32'4810.5
2018-Feb-11 17:53N 33°21' E 131°46'410.1
2018-Feb-11 17:28N 33°18' E 131°42'3 0.4
2018-Feb-11 10:08N 33°16' E 131°40'0 1.2
2018-Feb-11 09:53N 33°16' E 131°40'2 3.4
2018-Feb-11 09:25N 33°17' E 131°40'510.0
2018-Feb-11 08:55N 33°22' E 131°40'0 0.5
2018-Feb-11 08:30N 33°23' E 131°40'0 0.0
2018-Feb-11 08:00N 33°22' E 131°40'0 0.0
2018-Feb-11 07:30N 33°22' E 131°40'0 0.0
2018-Feb-11 07:00N 33°22' E 131°40'0 0.0
2018-Feb-11 06:30N 33°22' E 131°40'0 0.0
2018-Feb-11 06:00N 33°22' E 131°40'0 0.0
2018-Feb-11 05:30N 33°22' E 131°40'0 0.1
2018-Feb-11 05:00N 33°23' E 131°40'0 0.0
2018-Feb-11 04:30N 33°22' E 131°40'0 0.0
2018-Feb-11 04:00N 33°22' E 131°40'0 0.0
2018-Feb-11 03:31N 33°22' E 131°40'0 0.1
2018-Feb-11 03:00N 33°22' E 131°40'0 0.1
2018-Feb-11 02:31N 33°22' E 131°40'0 0.0
2018-Feb-11 02:00N 33°22' E 131°40'0 0.0
2018-Feb-11 01:30N 33°22' E 131°40'0 0.0
2018-Feb-11 01:00N 33°22' E 131°40'0 0.0
2018-Feb-11 00:30N 33°22' E 131°40'0 0.0
2018-Feb-11 00:00N 33°22' E 131°40'0 0.6
2018-Feb-10 23:31N 33°23' E 131°41'611.4
2018-Feb-10 22:59N 33°26' E 131°46'610.3
2018-Feb-10 22:26N 33°30' E 131°52'24 9.7
2018-Feb-10 19:56N 33°41' E 132°17'810.3
2018-Feb-10 19:11N 33°46' E 132°25'410.1
2018-Feb-10 18:45N 33°48' E 132°29'2 9.9
2018-Feb-10 18:31N 33°50' E 132°31'510.6
2018-Feb-10 18:00N 33°53' E 132°36'511.0
2018-Feb-10 17:30N 33°57' E 132°41'10810.5
2018-Feb-10 07:10N 34°47' E 134°38'1 4.6
2018-Feb-10 07:00N 34°47' E 134°39'0 0.0
2018-Feb-10 05:33N 34°47' E 134°39'0 0.0
2018-Feb-10 05:30N 34°47' E 134°39'0 0.0
2018-Feb-10 05:00N 34°47' E 134°39'0 0.0
2018-Feb-10 04:27N 34°47' E 134°39'0 0.0
2018-Feb-10 01:40N 34°47' E 134°39'0 0.0
2018-Feb-10 01:28N 34°47' E 134°39'0 0.0
2018-Feb-10 00:29N 34°47' E 134°39'0 0.0
2018-Feb-10 00:00N 34°47' E 134°39'0 0.0
2018-Feb-09 23:30N 34°47' E 134°39'0 0.0
2018-Feb-09 23:00N 34°47' E 134°39'0 0.0
2018-Feb-09 22:41N 34°47' E 134°39'110 4.4
2018-Feb-08 22:00N 33°56' E 132°41'  
Track history (hours):
 
Tides and Currents Weather Stations Pressure Air Temp Water Temp Dewpoint Dewpoint Depression Visibility Wind Speed Wind Dir Waves Ship Positions

Yuukimaru No.8

Last reported at 2018-Feb-18 03:36 UTC. Time now 2018-Feb-18 18:36 UTC.
Position N 34°58' E 140°07'.

Length 75 m; draft 4.7 m.

Type: Ship (hazmat cat D). MMSI: 431000298.

Date/timePositionNaut miles runAvg speedWind from/ knotsBaromVisibWave heightAir tempDewpointWater temp
2018-Feb-18 03:36N 34°58' E 140°07'20 7.2
2018-Feb-18 00:51N 35°06' E 139°45'411.5
2018-Feb-18 00:30N 35°10' E 139°46'611.9
2018-Feb-17 23:59N 35°16' E 139°46'612.1
2018-Feb-17 23:31N 35°21' E 139°42'611.5
2018-Feb-17 23:01N 35°26' E 139°45'611.8
2018-Feb-17 22:30N 35°31' E 139°50'610.1
2018-Feb-17 21:58N 35°37' E 139°49'1 0.0
2018-Feb-16 23:04N 35°37' E 139°48'0 5.3
2018-Feb-16 22:59N 35°37' E 139°49'8 5.6
2018-Feb-16 21:29N 35°29' E 139°52'4 9.5
2018-Feb-16 21:01N 35°26' E 139°49'5 9.3
2018-Feb-16 20:30N 35°22' E 139°45'5 9.2
2018-Feb-16 20:00N 35°18' E 139°45'510.2
2018-Feb-16 19:31N 35°13' E 139°47'510.2
2018-Feb-16 19:00N 35°08' E 139°45'6 9.7
2018-Feb-16 18:24N 35°03' E 139°40'410.7
2018-Feb-16 18:00N 35°01' E 139°36'2610.8
2018-Feb-16 15:34N 34°48' E 139°08'210.7
2018-Feb-16 15:26N 34°47' E 139°07'510.5
2018-Feb-16 14:58N 34°43' E 139°04'711.3
2018-Feb-16 14:22N 34°38' E 138°59'1511.0
2018-Feb-16 12:58N 34°34' E 138°41'711.1
2018-Feb-16 12:21N 34°33' E 138°33'910.5
2018-Feb-16 11:30N 34°33' E 138°22'611.3
2018-Feb-16 10:57N 34°32' E 138°14'611.2
2018-Feb-16 10:23N 34°32' E 138°07'810.3
2018-Feb-16 09:39N 34°31' E 137°57'158 7.9
2018-Feb-15 13:41N 34°04' E 134°49'410.8
2018-Feb-15 13:19N 34°07' E 134°46'1310.5
2018-Feb-15 12:06N 34°17' E 134°37'2 9.7
2018-Feb-15 11:56N 34°19' E 134°37'410.4
2018-Feb-15 11:30N 34°23' E 134°37'510.5
2018-Feb-15 11:00N 34°28' E 134°37'510.3
2018-Feb-15 10:30N 34°34' E 134°37'610.2
2018-Feb-15 09:53N 34°40' E 134°37'7 6.9
2018-Feb-15 08:51N 34°47' E 134°38'0 0.0
2018-Feb-15 08:30N 34°47' E 134°38'0 0.0
2018-Feb-15 03:59N 34°47' E 134°38'0 0.1
2018-Feb-15 03:17N 34°47' E 134°38'0 0.1
2018-Feb-15 02:54N 34°47' E 134°38'0 0.1
2018-Feb-15 02:30N 34°47' E 134°38'0 0.0
2018-Feb-15 01:00N 34°47' E 134°38'0 0.0
2018-Feb-15 00:30N 34°47' E 134°38'0 0.0
2018-Feb-15 00:00N 34°47' E 134°38'0 0.1
2018-Feb-14 23:29N 34°47' E 134°38'0 0.1
2018-Feb-14 22:53N 34°47' E 134°38'0 0.0
2018-Feb-14 07:19N 34°47' E 134°38'0 0.0
2018-Feb-14 07:00N 34°47' E 134°38'0 0.0
2018-Feb-14 06:30N 34°47' E 134°38'0 0.0
2018-Feb-14 06:00N 34°47' E 134°38'2 0.8
2018-Feb-14 03:47N 34°45' E 134°38'0 0.0
2018-Feb-14 03:30N 34°45' E 134°38'0 0.0
2018-Feb-14 03:00N 34°45' E 134°38'0 0.0
2018-Feb-14 02:30N 34°45' E 134°38'0 0.0
2018-Feb-14 02:00N 34°45' E 134°38'0 0.0
2018-Feb-14 01:30N 34°45' E 134°38'0 0.0
2018-Feb-14 00:59N 34°45' E 134°38'0 0.0
2018-Feb-14 00:29N 34°45' E 134°38'0 0.0
2018-Feb-14 00:00N 34°45' E 134°38'0 0.0
2018-Feb-13 23:30N 34°45' E 134°38'0 0.0
2018-Feb-13 23:00N 34°45' E 134°38'0 0.0
2018-Feb-13 22:30N 34°45' E 134°38'0 0.0
2018-Feb-13 22:00N 34°45' E 134°38'0 0.0
2018-Feb-13 21:30N 34°45' E 134°38'0 0.0
2018-Feb-13 21:00N 34°45' E 134°38'0 0.0
2018-Feb-13 20:27N 34°45' E 134°38'0 0.0
2018-Feb-13 20:00N 34°45' E 134°38'0 0.0
2018-Feb-13 19:30N 34°45' E 134°38'0 0.1
2018-Feb-13 18:43N 34°45' E 134°38'0 0.0
2018-Feb-13 17:23N 34°45' E 134°38'0 0.0
2018-Feb-13 16:30N 34°45' E 134°38'0 0.0
2018-Feb-13 12:11N 34°45' E 134°38'0 0.0
2018-Feb-13 11:52N 34°45' E 134°38'0 0.0
2018-Feb-13 11:28N 34°45' E 134°38'0 0.0
2018-Feb-13 10:45N 34°45' E 134°38'0 0.1
2018-Feb-13 10:30N 34°45' E 134°38'4 6.7
2018-Feb-13 09:51N 34°43' E 134°42'411.2
2018-Feb-13 09:30N 34°41' E 134°47'611.2
2018-Feb-13 09:01N 34°38' E 134°53'611.1
2018-Feb-13 08:30N 34°38' E 134°59'510.6
2018-Feb-13 08:01N 34°36' E 135°05'510.5
2018-Feb-13 07:30N 34°36' E 135°12'510.2
2018-Feb-13 07:00N 34°37' E 135°18'510.2
2018-Feb-13 06:30N 34°36' E 135°24'2 4.8
2018-Feb-13 06:00N 34°35' E 135°27'0 0.1
2018-Feb-13 05:30N 34°35' E 135°27'0 0.6
2018-Feb-13 05:01N 34°35' E 135°27'0 0.0
2018-Feb-13 04:30N 34°35' E 135°27'0 0.0
2018-Feb-13 04:00N 34°35' E 135°27'0 0.0
2018-Feb-13 03:31N 34°35' E 135°27'0 0.0
2018-Feb-13 03:01N 34°35' E 135°27'0 0.0
2018-Feb-13 02:30N 34°35' E 135°27'0 0.0
2018-Feb-13 02:01N 34°35' E 135°27'0 0.0
2018-Feb-13 01:30N 34°35' E 135°27'0 0.0
2018-Feb-13 01:00N 34°35' E 135°27'0 0.0
2018-Feb-13 00:31N 34°35' E 135°27'0 0.0
2018-Feb-13 00:00N 34°35' E 135°27'0 0.0
2018-Feb-12 23:31N 34°35' E 135°27'0 0.0
2018-Feb-12 23:00N 34°35' E 135°27'0 0.8
2018-Feb-12 22:30N 34°35' E 135°27'0 0.1
2018-Feb-12 22:00N 34°35' E 135°27'0 0.0
2018-Feb-12 21:31N 34°35' E 135°27'0 0.0
2018-Feb-12 20:59N 34°35' E 135°27'0 0.0
2018-Feb-12 20:31N 34°35' E 135°27'0 0.0
2018-Feb-12 20:01N 34°35' E 135°27'0 0.0
2018-Feb-12 19:30N 34°35' E 135°27'0 0.0
2018-Feb-12 19:00N 34°35' E 135°27'0 0.0
2018-Feb-12 18:31N 34°35' E 135°27'0 0.0
2018-Feb-12 18:00N 34°35' E 135°27'0 0.0
2018-Feb-12 17:30N 34°35' E 135°27'0 0.0
2018-Feb-12 17:00N 34°35' E 135°27'0 0.0
2018-Feb-12 16:30N 34°35' E 135°27'0 0.0
2018-Feb-12 16:00N 34°35' E 135°27'0 0.0
2018-Feb-12 15:31N 34°35' E 135°27'0 0.0
2018-Feb-12 15:00N 34°35' E 135°27'0 0.1
2018-Feb-12 14:30N 34°35' E 135°27'2 3.3
2018-Feb-12 14:00N 34°36' E 135°25'5 9.8
2018-Feb-12 13:31N 34°36' E 135°19'510.3
2018-Feb-12 13:00N 34°35' E 135°13'510.5
2018-Feb-12 12:30N 34°35' E 135°07'611.1
2018-Feb-12 12:01N 34°37' E 135°01'510.3
2018-Feb-12 11:30N 34°35' E 134°55'5 9.9
2018-Feb-12 11:00N 34°33' E 134°49'510.0
2018-Feb-12 10:30N 34°31' E 134°43'510.2
2018-Feb-12 10:00N 34°29' E 134°38'510.2
2018-Feb-12 09:30N 34°28' E 134°32'510.1
2018-Feb-12 09:00N 34°26' E 134°26'510.1
2018-Feb-12 08:28N 34°24' E 134°20'81 9.5
2018-Feb-11 23:56N 34°01' E 132°46'511.0
2018-Feb-11 23:31N 33°57' E 132°43'811.4
2018-Feb-11 22:48N 33°52' E 132°35'311.1
2018-Feb-11 22:30N 33°49' E 132°32'4810.5
2018-Feb-11 17:53N 33°21' E 131°46'410.1
2018-Feb-11 17:28N 33°18' E 131°42'3 0.4
2018-Feb-11 10:08N 33°16' E 131°40'0 1.2
2018-Feb-11 09:53N 33°16' E 131°40'2 3.4
2018-Feb-11 09:25N 33°17' E 131°40'510.0
2018-Feb-11 08:55N 33°22' E 131°40'0 0.5
2018-Feb-11 08:30N 33°23' E 131°40'0 0.0
2018-Feb-11 08:00N 33°22' E 131°40'0 0.0
2018-Feb-11 07:30N 33°22' E 131°40'0 0.0
2018-Feb-11 07:00N 33°22' E 131°40'0 0.0
2018-Feb-11 06:30N 33°22' E 131°40'0 0.0
2018-Feb-11 06:00N 33°22' E 131°40'0 0.0
2018-Feb-11 05:30N 33°22' E 131°40'0 0.1
2018-Feb-11 05:00N 33°23' E 131°40'0 0.0
2018-Feb-11 04:30N 33°22' E 131°40'0 0.0
2018-Feb-11 04:00N 33°22' E 131°40'0 0.0
2018-Feb-11 03:31N 33°22' E 131°40'0 0.1
2018-Feb-11 03:00N 33°22' E 131°40'0 0.1
2018-Feb-11 02:31N 33°22' E 131°40'0 0.0
2018-Feb-11 02:00N 33°22' E 131°40'0 0.0
2018-Feb-11 01:30N 33°22' E 131°40'0 0.0
2018-Feb-11 01:00N 33°22' E 131°40'0 0.0
2018-Feb-11 00:30N 33°22' E 131°40'0 0.0
2018-Feb-11 00:00N 33°22' E 131°40'0 0.6
2018-Feb-10 23:31N 33°23' E 131°41'611.4
2018-Feb-10 22:59N 33°26' E 131°46'610.3
2018-Feb-10 22:26N 33°30' E 131°52'24 9.7
2018-Feb-10 19:56N 33°41' E 132°17'810.3
2018-Feb-10 19:11N 33°46' E 132°25'410.1
2018-Feb-10 18:45N 33°48' E 132°29'2 9.9
2018-Feb-10 18:31N 33°50' E 132°31'510.6
2018-Feb-10 18:00N 33°53' E 132°36'511.0
2018-Feb-10 17:30N 33°57' E 132°41'10810.5
2018-Feb-10 07:10N 34°47' E 134°38'1 4.6
2018-Feb-10 07:00N 34°47' E 134°39'0 0.0
2018-Feb-10 05:33N 34°47' E 134°39'0 0.0
2018-Feb-10 05:30N 34°47' E 134°39'0 0.0
2018-Feb-10 05:00N 34°47' E 134°39'0 0.0
2018-Feb-10 04:27N 34°47' E 134°39'0 0.0
2018-Feb-10 01:40N 34°47' E 134°39'0 0.0
2018-Feb-10 01:28N 34°47' E 134°39'0 0.0
2018-Feb-10 00:29N 34°47' E 134°39'0 0.0
2018-Feb-10 00:00N 34°47' E 134°39'0 0.0
2018-Feb-09 23:30N 34°47' E 134°39'0 0.0
2018-Feb-09 23:00N 34°47' E 134°39'0 0.0
2018-Feb-09 22:41N 34°47' E 134°39'110 4.4
2018-Feb-08 22:00N 33°56' E 132°41'  

Dump ship's entire track history